Time;durP1;ratioP1;P1;durP2;ratioP2;P2;SDS_P1;SDS_P2;PMS_P1;PMS_P2;Temp;Humidity;BMP_temperature;BMP_pressure;BME280_temperature;BME280_humidity;BME280_pressure;Samples;Min_cycle;Max_cycle;Signal;HPM_P1;HPM_P2
2023/07/12 00:00:46;;;;;;;10.57;5.88;;;17.00;99.90;;;;;;5074065;28;20048;-21
2023/07/12 00:03:12;;;;;;;8.65;6.70;;;17.00;99.90;;;;;;5074041;28;20049;-21
2023/07/12 00:05:38;;;;;;;11.38;7.20;;;17.00;99.90;;;;;;5074459;28;20053;-21
2023/07/12 00:08:05;;;;;;;10.65;6.68;;;17.00;99.90;;;;;;5085137;28;20086;-21
2023/07/12 00:10:36;;;;;;;8.27;6.32;;;16.90;99.90;;;;;;5073557;28;20040;-21
2023/07/12 00:13:02;;;;;;;8.00;6.47;;;17.00;99.90;;;;;;5088467;28;20072;-21
2023/07/12 00:15:36;;;;;;;9.98;6.63;;;16.90;99.90;;;;;;5094165;28;20044;-21
2023/07/12 00:18:04;;;;;;;9.52;6.15;;;16.90;99.90;;;;;;5093480;28;20047;-22
2023/07/12 00:20:35;;;;;;;7.97;6.68;;;16.90;99.90;;;;;;5093130;28;20044;-21
2023/07/12 00:23:02;;;;;;;10.57;7.00;;;16.90;99.90;;;;;;5093196;28;20044;-21
2023/07/12 00:25:30;;;;;;;10.82;7.60;;;16.80;99.90;;;;;;5077211;28;20048;-21
2023/07/12 00:27:56;;;;;;;13.13;7.57;;;16.80;99.90;;;;;;5073752;28;20049;-21
2023/07/12 00:30:34;;;;;;;15.98;7.80;;;16.80;99.90;;;;;;5074026;28;20047;-21
2023/07/12 00:33:03;;;;;;;10.20;6.85;;;16.80;99.90;;;;;;5074443;28;20429;-21
2023/07/12 00:35:30;;;;;;;12.23;7.13;;;16.60;99.90;;;;;;5077524;28;20051;-21
2023/07/12 00:37:58;;;;;;;12.10;8.02;;;16.60;99.90;;;;;;5084937;28;20044;-21
2023/07/12 00:40:42;;;;;;;11.68;7.68;;;16.70;99.90;;;;;;5076572;28;20060;-21
2023/07/12 00:43:25;;;;;;;12.93;7.97;;;16.60;99.90;;;;;;5088066;28;20490;-21
2023/07/12 00:45:52;;;;;;;12.25;7.57;;;16.60;99.90;;;;;;5073004;28;20044;-21
2023/07/12 00:48:19;;;;;;;11.65;7.28;;;16.60;99.90;;;;;;5074344;28;20371;-21
2023/07/12 00:50:49;;;;;;;10.48;7.10;;;16.60;99.90;;;;;;5074738;28;20044;-21
2023/07/12 00:53:20;;;;;;;12.57;7.75;;;16.60;99.90;;;;;;5073061;28;20041;-21
2023/07/12 00:56:03;;;;;;;11.25;7.85;;;16.60;99.90;;;;;;5077314;28;20044;-21
2023/07/12 00:58:36;;;;;;;13.38;8.57;;;16.50;99.90;;;;;;5073299;28;20616;-21
2023/07/12 01:01:03;;;;;;;14.15;7.45;;;16.50;99.90;;;;;;5079347;28;20033;-21
2023/07/12 01:03:33;;;;;;;10.13;6.38;;;16.40;99.90;;;;;;5073652;28;20123;-21
2023/07/12 01:06:00;;;;;;;14.10;8.95;;;16.50;99.90;;;;;;5088722;28;20042;-21
2023/07/12 01:08:28;;;;;;;10.48;7.40;;;16.40;99.90;;;;;;5087269;28;20091;-21
2023/07/12 01:10:55;;;;;;;14.43;8.05;;;16.40;99.90;;;;;;5081810;28;20048;-21
2023/07/12 01:13:22;;;;;;;16.10;9.25;;;16.40;99.90;;;;;;5091039;28;20044;-21
2023/07/12 01:15:48;;;;;;;13.02;7.55;;;16.40;99.90;;;;;;5074207;28;20052;-21
2023/07/12 01:18:14;;;;;;;13.73;6.80;;;16.40;99.90;;;;;;5073244;28;20075;-21
2023/07/12 01:20:42;;;;;;;11.45;6.95;;;16.40;99.90;;;;;;5073222;28;20123;-21
2023/07/12 01:23:08;;;;;;;14.05;6.25;;;16.40;99.90;;;;;;5076702;28;20052;-21
2023/07/12 01:25:45;;;;;;;10.90;5.93;;;16.40;99.90;;;;;;5076902;28;20048;-20
2023/07/12 01:28:12;;;;;;;10.52;6.35;;;16.50;99.90;;;;;;5076446;28;20543;-21
2023/07/12 01:30:39;;;;;;;9.50;5.35;;;16.50;99.90;;;;;;5075830;28;20048;-21
2023/07/12 01:33:06;;;;;;;9.10;5.38;;;16.50;99.90;;;;;;5076195;28;20044;-21
2023/07/12 01:35:32;;;;;;;12.98;6.15;;;16.50;99.90;;;;;;5076793;28;20048;-21
2023/07/12 01:37:58;;;;;;;9.00;5.82;;;16.60;99.90;;;;;;5077649;28;20040;-21
2023/07/12 01:40:24;;;;;;;16.15;5.85;;;16.50;99.90;;;;;;5084766;28;20056;-21
2023/07/12 01:42:49;;;;;;;10.27;5.72;;;16.60;99.90;;;;;;5083289;28;20047;-21
2023/07/12 01:45:15;;;;;;;13.15;5.30;;;16.60;99.90;;;;;;5090760;28;20481;-21
2023/07/12 01:47:41;;;;;;;9.55;5.55;;;16.70;99.90;;;;;;5079416;28;20044;-21
2023/07/12 01:50:07;;;;;;;9.88;4.63;;;16.70;99.90;;;;;;5076218;28;20040;-21
2023/07/12 01:52:32;;;;;;;8.20;4.60;;;16.60;99.90;;;;;;5075821;28;20098;-21
2023/07/12 01:54:58;;;;;;;10.82;4.88;;;16.60;99.90;;;;;;5082985;28;20040;-21
2023/07/12 01:57:24;;;;;;;7.13;4.28;;;16.70;99.90;;;;;;5080351;28;20055;-21
2023/07/12 01:59:49;;;;;;;10.85;4.97;;;16.70;99.90;;;;;;5062606;28;20048;-21
2023/07/12 02:02:15;;;;;;;11.25;4.82;;;16.80;99.90;;;;;;5083857;28;20390;-21
2023/07/12 02:04:41;;;;;;;11.10;4.95;;;16.80;99.90;;;;;;5082535;28;20054;-21
2023/07/12 02:07:07;;;;;;;11.60;5.20;;;16.80;99.90;;;;;;5081753;28;20051;-21
2023/07/12 02:09:37;;;;;;;9.00;4.97;;;16.80;99.90;;;;;;5089987;28;20036;-21
2023/07/12 02:12:03;;;;;;;7.72;4.90;;;16.80;99.90;;;;;;5076164;28;20551;-21
2023/07/12 02:14:29;;;;;;;8.45;4.90;;;16.70;99.90;;;;;;5084927;28;20051;-21
2023/07/12 02:16:54;;;;;;;12.90;6.15;;;16.70;99.90;;;;;;5095418;28;20051;-21
2023/07/12 02:19:20;;;;;;;10.70;5.93;;;16.70;99.90;;;;;;5095361;28;20569;-21
2023/07/12 02:21:46;;;;;;;10.55;4.60;;;16.70;99.90;;;;;;5096345;28;20060;-21
2023/07/12 02:24:11;;;;;;;11.30;4.97;;;16.70;99.90;;;;;;5077902;28;20044;-21
2023/07/12 02:26:39;;;;;;;13.25;4.75;;;16.70;99.90;;;;;;5088067;28;20040;-21
2023/07/12 02:29:05;;;;;;;10.18;5.22;;;16.80;99.90;;;;;;5075877;28;20052;-21
2023/07/12 02:31:32;;;;;;;10.40;4.82;;;16.80;99.90;;;;;;5075841;28;20398;-21
2023/07/12 02:33:58;;;;;;;10.70;4.90;;;16.80;99.90;;;;;;5075729;28;20431;-21
2023/07/12 02:36:24;;;;;;;11.70;4.82;;;16.80;99.90;;;;;;5076003;28;20095;-21
2023/07/12 02:38:49;;;;;;;13.25;5.38;;;16.80;99.90;;;;;;5074271;28;20131;-21
2023/07/12 02:41:16;;;;;;;13.65;4.88;;;16.80;99.90;;;;;;5075699;28;20109;-21
2023/07/12 02:43:43;;;;;;;13.48;5.22;;;16.80;99.90;;;;;;5075585;28;20052;-21
2023/07/12 02:46:09;;;;;;;15.32;5.70;;;16.80;99.90;;;;;;5076137;28;20087;-20
2023/07/12 02:48:35;;;;;;;12.82;6.15;;;16.70;99.90;;;;;;5075520;28;20048;-20
2023/07/12 02:51:01;;;;;;;15.13;5.85;;;16.60;99.90;;;;;;5075137;28;20631;-20
2023/07/12 02:53:28;;;;;;;10.88;5.57;;;16.50;99.90;;;;;;5076093;28;20131;-19
2023/07/12 02:55:54;;;;;;;16.42;5.65;;;16.40;99.90;;;;;;5074384;28;20052;-19
2023/07/12 02:58:21;;;;;;;12.93;5.82;;;16.40;99.90;;;;;;5078510;28;20050;-19
2023/07/12 03:00:47;;;;;;;22.00;6.82;;;16.30;99.90;;;;;;5074052;28;20048;-19
2023/07/12 03:03:13;;;;;;;13.82;6.45;;;16.30;99.90;;;;;;5074518;28;20045;-19
2023/07/12 03:05:40;;;;;;;10.50;5.97;;;16.30;99.90;;;;;;5074802;28;20047;-19
2023/07/12 03:08:07;;;;;;;10.82;5.65;;;16.20;99.90;;;;;;5087994;28;20117;-19
2023/07/12 03:10:36;;;;;;;12.23;5.93;;;16.20;99.90;;;;;;5078103;28;20041;-19
2023/07/12 03:13:02;;;;;;;13.38;6.50;;;16.20;99.90;;;;;;5074657;28;20045;-19
2023/07/12 03:15:28;;;;;;;16.25;7.40;;;16.20;99.90;;;;;;5086439;28;20044;-19
2023/07/12 03:17:53;;;;;;;15.07;6.70;;;16.10;99.90;;;;;;5075467;28;20088;-19
2023/07/12 03:20:19;;;;;;;15.15;7.43;;;16.10;99.90;;;;;;5085108;28;20635;-19
2023/07/12 03:22:45;;;;;;;15.18;6.57;;;16.10;99.90;;;;;;5095113;28;20052;-19
2023/07/12 03:25:10;;;;;;;19.65;6.72;;;16.10;99.90;;;;;;5095080;28;20564;-19
2023/07/12 03:27:36;;;;;;;18.08;7.63;;;16.10;99.90;;;;;;5092940;28;20047;-19
2023/07/12 03:30:02;;;;;;;16.88;6.75;;;16.20;99.90;;;;;;5095242;28;20040;-19
2023/07/12 03:32:28;;;;;;;19.38;6.93;;;16.10;99.90;;;;;;5084084;28;20551;-19
2023/07/12 03:34:54;;;;;;;22.77;6.90;;;16.10;99.90;;;;;;5074533;28;20438;-19
2023/07/12 03:37:19;;;;;;;13.73;6.28;;;16.10;99.90;;;;;;5074490;28;20053;-20
2023/07/12 03:39:45;;;;;;;19.85;6.30;;;16.20;99.90;;;;;;5074350;28;20056;-20
2023/07/12 03:42:11;;;;;;;15.25;6.40;;;16.20;99.90;;;;;;5074506;28;20089;-19
2023/07/12 03:44:37;;;;;;;15.20;6.07;;;16.30;99.90;;;;;;5056519;28;20049;-20
2023/07/12 03:47:03;;;;;;;18.50;6.70;;;16.30;99.90;;;;;;5073722;28;20048;-20
2023/07/12 03:49:29;;;;;;;15.18;5.75;;;16.30;99.90;;;;;;5074332;28;20498;-20
2023/07/12 03:51:54;;;;;;;19.15;5.97;;;16.40;99.90;;;;;;5074270;28;20044;-20
2023/07/12 03:54:21;;;;;;;18.17;6.32;;;16.40;99.90;;;;;;5073889;28;20135;-20
2023/07/12 03:56:47;;;;;;;19.52;5.50;;;16.40;99.90;;;;;;5072700;28;20129;-20
2023/07/12 03:59:13;;;;;;;20.38;5.80;;;16.40;99.90;;;;;;5089063;28;20119;-20
2023/07/12 04:01:39;;;;;;;14.88;5.13;;;16.40;99.90;;;;;;5087677;28;20393;-20
2023/07/12 04:04:04;;;;;;;18.52;5.38;;;16.50;99.90;;;;;;5076841;28;20052;-20
2023/07/12 04:06:31;;;;;;;17.83;4.97;;;16.50;99.90;;;;;;5088212;28;20119;-20
2023/07/12 04:08:57;;;;;;;13.55;5.20;;;16.50;99.90;;;;;;5090891;28;20459;-20
2023/07/12 04:11:31;;;;;;;18.27;6.00;;;16.50;99.90;;;;;;5093032;28;20044;-20
2023/07/12 04:13:59;;;;;;;19.63;5.55;;;16.50;99.90;;;;;;5084758;28;20044;-20
2023/07/12 04:16:25;;;;;;;15.93;4.68;;;16.50;99.90;;;;;;5083941;28;20114;-20
2023/07/12 04:18:52;;;;;;;18.52;5.93;;;16.50;99.90;;;;;;5072837;28;20049;-20
2023/07/12 04:21:18;;;;;;;17.85;5.90;;;16.50;99.90;;;;;;5072302;28;20048;-20
2023/07/12 04:23:46;;;;;;;16.83;5.53;;;16.50;99.90;;;;;;5073675;28;20052;-20
2023/07/12 04:26:12;;;;;;;23.77;6.03;;;16.50;99.90;;;;;;5074165;28;20043;-20
2023/07/12 04:28:39;;;;;;;16.88;5.85;;;16.50;99.90;;;;;;5078223;28;20101;-20
2023/07/12 04:31:10;;;;;;;15.35;5.40;;;16.50;99.90;;;;;;5086452;28;20051;-20
2023/07/12 04:33:36;;;;;;;20.40;6.45;;;16.50;99.90;;;;;;5093939;28;20052;-20
2023/07/12 04:36:10;;;;;;;18.08;5.32;;;16.40;99.90;;;;;;5085050;28;20048;-20
2023/07/12 04:38:36;;;;;;;22.13;6.25;;;16.50;99.90;;;;;;5079250;28;20048;-20
2023/07/12 04:41:02;;;;;;;11.77;4.60;;;16.40;99.90;;;;;;5074200;28;20156;-21
2023/07/12 04:43:29;;;;;;;18.52;5.60;;;16.40;99.90;;;;;;5073624;28;20109;-21
2023/07/12 04:45:55;;;;;;;20.52;5.85;;;16.40;99.90;;;;;;5073185;28;20060;-20
2023/07/12 04:48:21;;;;;;;22.40;5.57;;;16.50;99.90;;;;;;5080606;28;20044;-20
2023/07/12 04:50:52;;;;;;;22.33;5.60;;;16.50;99.90;;;;;;5073543;28;20395;-21
2023/07/12 04:53:19;;;;;;;16.02;5.40;;;16.50;99.90;;;;;;5073507;28;20123;-21
2023/07/12 04:55:45;;;;;;;20.65;5.75;;;16.50;99.90;;;;;;5077838;28;20040;-21
2023/07/12 04:58:12;;;;;;;21.77;5.95;;;16.50;99.90;;;;;;5086992;28;20119;-21
2023/07/12 05:00:37;;;;;;;14.70;5.40;;;16.60;99.90;;;;;;5084556;28;20066;-21
2023/07/12 05:03:03;;;;;;;21.95;5.20;;;16.60;99.90;;;;;;5093220;28;20556;-21
2023/07/12 05:05:29;;;;;;;20.17;5.22;;;16.70;99.90;;;;;;5080600;28;20044;-21
2023/07/12 05:07:55;;;;;;;23.92;6.45;;;16.80;99.90;;;;;;5090301;28;20511;-21
2023/07/12 05:10:21;;;;;;;21.88;5.35;;;17.00;99.90;;;;;;5086594;28;20509;-21
2023/07/12 05:12:46;;;;;;;19.05;5.22;;;17.00;99.90;;;;;;5089566;28;20079;-21
2023/07/12 05:15:12;;;;;;;27.25;7.40;;;17.20;99.90;;;;;;5098123;28;20458;-21
2023/07/12 05:17:39;;;;;;;21.38;6.22;;;17.30;99.90;;;;;;5092330;28;20040;-21
2023/07/12 05:20:07;;;;;;;22.90;6.35;;;17.40;99.90;;;;;;5088322;28;20097;-21
2023/07/12 05:22:33;;;;;;;20.35;5.22;;;17.50;99.90;;;;;;5077182;28;20044;-21
2023/07/12 05:24:59;;;;;;;18.55;5.00;;;17.50;99.90;;;;;;5091463;28;20083;-21
2023/07/12 05:27:26;;;;;;;23.38;6.30;;;17.50;99.90;;;;;;5095596;28;20090;-21
2023/07/12 05:29:51;;;;;;;17.30;5.72;;;17.50;99.90;;;;;;5097810;28;20066;-21
2023/07/12 05:32:17;;;;;;;22.63;5.50;;;17.60;99.90;;;;;;5097508;28;20478;-21
2023/07/12 05:34:43;;;;;;;19.35;5.35;;;17.60;99.90;;;;;;5095941;28;20044;-22
2023/07/12 05:37:11;;;;;;;18.83;5.50;;;17.70;99.90;;;;;;5081904;28;20466;-21
2023/07/12 05:39:36;;;;;;;14.27;4.75;;;17.90;99.90;;;;;;5076585;28;20130;-22
2023/07/12 05:42:02;;;;;;;21.25;5.70;;;18.20;99.90;;;;;;5075654;28;20487;-21
2023/07/12 05:44:28;;;;;;;21.67;4.97;;;18.50;99.90;;;;;;5077118;28;20044;-21
2023/07/12 05:46:54;;;;;;;17.15;5.05;;;18.70;99.90;;;;;;5075630;28;20105;-21
2023/07/12 05:49:20;;;;;;;25.25;5.25;;;18.80;99.90;;;;;;5092758;28;20040;-22
2023/07/12 05:51:46;;;;;;;21.48;5.38;;;18.70;99.90;;;;;;5097434;28;20043;-22
2023/07/12 05:54:12;;;;;;;21.10;5.07;;;18.70;99.90;;;;;;5096786;28;20127;-22
2023/07/12 05:56:38;;;;;;;25.00;5.30;;;18.90;99.90;;;;;;5096846;28;20133;-22
2023/07/12 05:59:04;;;;;;;15.68;4.45;;;18.80;99.90;;;;;;5096679;28;20117;-22
2023/07/12 06:01:30;;;;;;;20.92;5.30;;;18.60;99.90;;;;;;5084275;28;20048;-22
2023/07/12 06:03:55;;;;;;;22.40;5.22;;;18.50;99.90;;;;;;5079746;28;20079;-21
2023/07/12 06:06:21;;;;;;;18.63;5.53;;;18.40;99.90;;;;;;5093531;28;20075;-22
2023/07/12 06:08:47;;;;;;;19.88;4.63;;;18.40;99.90;;;;;;5084331;28;20139;-22
2023/07/12 06:11:13;;;;;;;15.95;4.70;;;18.40;99.90;;;;;;5089252;28;20079;-22
2023/07/12 06:13:39;;;;;;;19.45;4.82;;;18.60;99.90;;;;;;5091430;28;20051;-22
2023/07/12 06:16:05;;;;;;;20.02;4.80;;;18.80;99.90;;;;;;5082404;28;20044;-22
2023/07/12 06:18:31;;;;;;;20.13;5.28;;;19.00;99.90;;;;;;5076161;28;20051;-22
2023/07/12 06:20:59;;;;;;;27.90;7.13;;;19.10;99.90;;;;;;5091835;28;20080;-22
2023/07/12 06:23:25;;;;;;;14.57;5.40;;;19.00;99.90;;;;;;5075540;28;20479;-22
2023/07/12 06:25:51;;;;;;;16.65;4.32;;;18.90;99.90;;;;;;5081044;28;20040;-22
2023/07/12 06:28:17;;;;;;;18.55;4.90;;;18.80;99.90;;;;;;5077789;28;20086;-22
2023/07/12 06:30:43;;;;;;;16.77;4.63;;;18.80;99.90;;;;;;5075535;28;20060;-22
2023/07/12 06:33:10;;;;;;;19.25;5.68;;;18.70;99.90;;;;;;5075763;28;20402;-22
2023/07/12 06:35:36;;;;;;;16.55;4.55;;;18.60;99.90;;;;;;5073923;28;20044;-21
2023/07/12 06:38:02;;;;;;;18.58;3.88;;;18.60;99.90;;;;;;5043924;28;20044;-22
2023/07/12 06:40:27;;;;;;;19.83;4.85;;;19.10;99.90;;;;;;5074029;28;20054;-22
2023/07/12 06:42:53;;;;;;;17.92;4.55;;;19.40;99.90;;;;;;5075715;28;20218;-22
2023/07/12 06:45:19;;;;;;;16.58;5.32;;;19.90;99.90;;;;;;5075641;28;20550;-22
2023/07/12 06:47:44;;;;;;;13.70;4.25;;;20.50;99.90;;;;;;5082548;28;20172;-22
2023/07/12 06:50:10;;;;;;;20.52;5.07;;;21.00;1.00;;;;;;5074256;28;20115;-22
2023/07/12 06:52:36;;;;;;;14.98;4.15;;;21.60;99.90;;;;;;5075511;28;20056;-22
2023/07/12 06:55:02;;;;;;;21.20;4.30;;;20.90;1.00;;;;;;5075468;28;20072;-20
2023/07/12 06:57:28;;;;;;;18.20;4.63;;;19.90;1.00;;;;;;5077691;28;20044;-21
2023/07/12 06:59:54;;;;;;;19.05;4.55;;;19.10;1.00;;;;;;5077268;28;20559;-21
2023/07/12 07:02:19;;;;;;;15.70;5.35;;;18.60;1.00;;;;;;5078275;28;20048;-21
2023/07/12 07:04:45;;;;;;;16.55;4.53;;;18.30;1.00;;;;;;5084320;28;20139;-20
2023/07/12 07:07:10;;;;;;;16.15;4.05;;;18.20;32.70;;;;;;5059360;28;20033;-21
2023/07/12 07:09:38;;;;;;;17.30;3.90;;;18.10;1.00;;;;;;5076847;28;20040;-21
2023/07/12 07:12:06;;;;;;;15.52;4.28;;;18.30;1.00;;;;;;5077495;28;20044;-21
2023/07/12 07:14:32;;;;;;;15.20;4.70;;;18.80;1.00;;;;;;5080160;28;20428;-21
2023/07/12 07:16:58;;;;;;;16.20;5.35;;;19.10;99.90;;;;;;5077317;28;20056;-22
2023/07/12 07:19:24;;;;;;;19.20;4.80;;;19.30;1.00;;;;;;5074654;28;20044;-22
2023/07/12 07:21:50;;;;;;;16.95;5.68;;;19.70;1.00;;;;;;5074860;28;20084;-22
2023/07/12 07:24:17;;;;;;;18.80;4.95;;;20.10;1.00;;;;;;5074724;28;20072;-22
2023/07/12 07:26:43;;;;;;;18.92;4.80;;;20.60;99.90;;;;;;5087479;28;20059;-22
2023/07/12 07:29:09;;;;;;;18.73;4.93;;;20.30;1.00;;;;;;5084329;28;20052;-22
2023/07/12 07:31:35;;;;;;;15.68;4.25;;;20.30;1.00;;;;;;5074711;28;20044;-22
2023/07/12 07:34:01;;;;;;;14.32;3.60;;;19.90;1.00;;;;;;5074657;28;20549;-22
2023/07/12 07:36:27;;;;;;;10.65;3.42;;;19.50;1.00;;;;;;5074528;28;20049;-22
2023/07/12 07:38:53;;;;;;;15.63;4.05;;;19.10;99.90;;;;;;5074233;28;20044;-21
2023/07/12 07:41:19;;;;;;;13.13;3.72;;;18.60;1.00;;;;;;5074503;28;20049;-20
2023/07/12 07:43:45;;;;;;;13.88;4.03;;;18.20;71.60;;;;;;5074868;28;20044;-20
2023/07/12 07:46:13;;;;;;;22.33;5.55;;;18.10;99.90;;;;;;5091787;28;20456;-20
2023/07/12 07:48:38;;;;;;;15.02;4.20;;;18.30;99.90;;;;;;5094607;28;20101;-22
2023/07/12 07:51:07;;;;;;;20.33;4.68;;;19.20;99.90;;;;;;5094569;28;20040;-23
2023/07/12 07:53:33;;;;;;;11.57;4.45;;;19.30;96.90;;;;;;5094505;28;20086;-23
2023/07/12 07:55:58;;;;;;;13.00;4.05;;;19.00;39.10;;;;;;5084959;28;20467;-23
2023/07/12 07:58:24;;;;;;;11.88;4.43;;;18.60;99.90;;;;;;5074185;28;20119;-22
2023/07/12 08:00:51;;;;;;;18.17;6.15;;;18.40;99.90;;;;;;5073702;28;20055;-23
2023/07/12 08:03:17;;;;;;;14.30;5.18;;;18.30;99.90;;;;;;5072893;28;20379;-23
2023/07/12 08:05:44;;;;;;;15.75;5.07;;;18.20;99.90;;;;;;5076114;28;20064;-22
2023/07/12 08:08:11;;;;;;;16.55;3.97;;;18.10;99.90;;;;;;5089753;28;20123;-23
2023/07/12 08:10:37;;;;;;;10.77;3.17;;;18.10;99.90;;;;;;5094267;28;20080;-23
2023/07/12 08:13:03;;;;;;;10.95;2.97;;;18.00;99.90;;;;;;5092784;28;20083;-22
2023/07/12 08:15:29;;;;;;;17.92;4.18;;;17.90;99.90;;;;;;5080619;28;20048;-23
2023/07/12 08:17:55;;;;;;;7.82;2.70;;;17.80;99.90;;;;;;5093503;28;20044;-23
2023/07/12 08:20:22;;;;;;;11.40;3.10;;;17.80;99.90;;;;;;5082869;28;20478;-23
2023/07/12 08:22:49;;;;;;;9.60;2.85;;;17.70;99.90;;;;;;5093797;28;20048;-24
2023/07/12 08:25:15;;;;;;;12.40;3.50;;;18.00;99.90;;;;;;5092854;28;20520;-23
2023/07/12 08:27:41;;;;;;;10.38;3.50;;;19.00;99.90;;;;;;5075891;28;20040;-23
2023/07/12 08:30:07;;;;;;;10.73;3.00;;;19.20;1.00;;;;;;5091151;28;20140;-24
2023/07/12 08:32:34;;;;;;;12.25;2.67;;;19.90;1.00;;;;;;5081162;28;20040;-24
2023/07/12 08:35:01;;;;;;;12.25;2.83;;;20.30;1.00;;;;;;5080898;28;20052;-24
2023/07/12 08:37:27;;;;;;;10.73;2.85;;;20.20;1.00;;;;;;5088925;28;20489;-24
2023/07/12 08:39:53;;;;;;;10.48;2.15;;;20.20;9.00;;;;;;5094165;28;20048;-24
2023/07/12 08:42:31;;;;;;;13.65;3.55;;;20.60;1.00;;;;;;5093547;28;20048;-24
2023/07/12 08:44:59;;;;;;;10.43;2.85;;;20.50;20.20;;;;;;5082923;28;20070;-24
2023/07/12 08:47:31;;;;;;;11.32;2.80;;;20.10;99.90;;;;;;5079329;28;20056;-24
2023/07/12 08:49:58;;;;;;;7.35;2.42;;;19.90;20.50;;;;;;5078376;28;20044;-24
2023/07/12 08:52:30;;;;;;;10.13;3.03;;;19.60;99.90;;;;;;5079814;28;20052;-24
2023/07/12 08:54:59;;;;;;;8.93;2.85;;;19.50;99.90;;;;;;5076942;28;20494;-24
2023/07/12 08:57:29;;;;;;;10.65;2.60;;;19.40;1.00;;;;;;5085327;28;20047;-24
2023/07/12 09:00:07;;;;;;;10.05;2.80;;;19.30;99.90;;;;;;5084565;28;20067;-24
2023/07/12 09:02:33;;;;;;;13.18;2.80;;;19.20;99.90;;;;;;5074350;28;20040;-24
2023/07/12 09:05:09;;;;;;;8.48;2.17;;;19.60;1.00;;;;;;5075032;28;20049;-24
2023/07/12 09:07:36;;;;;;;8.95;2.88;;;20.50;99.90;;;;;;5073747;28;20048;-25
2023/07/12 09:10:03;;;;;;;6.35;1.85;;;21.50;99.90;;;;;;5073944;28;20048;-24
2023/07/12 09:12:34;;;;;;;9.60;2.17;;;21.80;99.90;;;;;;5073330;28;20059;-25
2023/07/12 09:15:08;;;;;;;5.15;1.65;;;22.40;99.90;;;;;;5074788;28;20053;-24
2023/07/12 09:17:42;;;;;;;9.65;2.25;;;22.40;99.90;;;;;;5073328;28;20101;-25
2023/07/12 09:20:34;;;;;;;8.20;1.92;;;21.70;99.90;;;;;;5072901;28;20475;-24
2023/07/12 09:23:00;;;;;;;6.60;1.80;;;20.90;1.00;;;;;;5071489;28;20143;-25
2023/07/12 09:25:35;;;;;;;6.40;2.00;;;20.80;7.40;;;;;;5074154;28;20497;-24
2023/07/12 09:28:01;;;;;;;6.03;1.48;;;20.80;1.00;;;;;;5072916;28;20585;-24
2023/07/12 09:30:29;;;;;;;4.80;1.85;;;20.70;99.90;;;;;;5073158;28;20123;-27
2023/07/12 09:32:57;;;;;;;4.13;1.30;;;20.70;99.90;;;;;;5073185;28;20041;-25
2023/07/12 09:35:32;;;;;;;8.65;1.92;;;21.30;99.90;;;;;;5072362;28;20048;-24
2023/07/12 09:38:04;;;;;;;8.60;2.25;;;21.80;99.90;;;;;;5072210;28;20052;-25
2023/07/12 09:40:44;;;;;;;7.10;1.38;;;21.80;99.90;;;;;;5079252;28;20146;-24
2023/07/12 09:43:16;;;;;;;5.63;1.88;;;20.60;68.70;;;;;;5085062;28;20044;-24
2023/07/12 09:45:48;;;;;;;;;;;19.90;98.50;;;;;;5084002;28;20436;-24
2023/07/12 09:48:40;;;;;;;5.82;1.33;;;19.60;99.90;;;;;;5077127;28;20355;-24
2023/07/12 09:51:47;;;;;;;6.43;1.63;;;19.40;99.90;;;;;;5077468;28;20048;-24
2023/07/12 09:54:42;;;;;;;7.18;1.98;;;19.20;1.00;;;;;;5034860;28;20156;-24
2023/07/12 09:58:05;;;;;;;7.10;1.80;;;19.10;99.90;;;;;;5079775;28;20564;-24
2023/07/12 10:00:45;;;;;;;6.65;2.40;;;19.80;99.90;;;;;;5073852;28;20041;-24
2023/07/12 10:03:26;;;;;;;5.68;1.88;;;21.20;66.90;;;;;;5074289;28;20119;-24
2023/07/12 10:06:22;;;;;;;7.53;2.20;;;21.20;1.00;;;;;;5073239;28;20135;-23
2023/07/12 10:09:13;;;;;;;5.88;2.30;;;21.10;82.80;;;;;;5080290;28;20036;-24
2023/07/12 10:11:54;;;;;;;7.45;1.98;;;21.40;99.90;;;;;;5090485;28;20048;-24
2023/07/12 10:14:23;;;;;;;6.50;1.77;;;21.60;99.90;;;;;;5076052;28;20174;-24
2023/07/12 10:16:53;;;;;;;4.30;1.10;;;21.90;1.00;;;;;;5075206;28;20075;-24
2023/07/12 10:19:32;;;;;;;6.78;2.13;;;22.10;99.90;;;;;;5076101;28;20127;-24
2023/07/12 10:22:05;;;;;;;4.55;1.63;;;22.30;1.00;;;;;;5075957;28;20174;-24
2023/07/12 10:24:36;;;;;;;3.58;1.35;;;22.20;99.90;;;;;;5090260;28;20117;-24
2023/07/12 10:27:25;;;;;;;3.08;0.88;;;22.40;99.90;;;;;;5097096;28;20051;-24
2023/07/12 10:30:08;;;;;;;1.98;1.08;;;22.00;1.00;;;;;;5097057;28;20119;-24
2023/07/12 10:32:39;;;;;;;5.07;1.30;;;21.30;1.00;;;;;;5096177;28;20044;-24
2023/07/12 10:35:24;;;;;;;3.90;1.55;;;21.40;99.90;;;;;;5059774;28;20052;-24
2023/07/12 10:38:04;;;;;;;6.00;1.27;;;22.50;10.30;;;;;;5075753;28;20044;-24
2023/07/12 10:40:40;;;;;;;4.22;1.13;;;23.00;1.00;;;;;;5083308;28;20101;-24
2023/07/12 10:43:13;;;;;;;4.78;0.80;;;22.70;35.90;;;;;;5095744;28;20548;-25
2023/07/12 10:45:39;;;;;;;3.97;1.08;;;22.20;1.00;;;;;;5083056;28;20551;-25
2023/07/12 10:48:07;;;;;;;1.88;0.75;;;21.90;99.90;;;;;;5080643;28;20398;-24
2023/07/12 10:50:44;;;;;;;2.95;1.05;;;21.10;1.00;;;;;;5092805;28;20126;-24
2023/07/12 10:53:25;;;;;;;3.28;0.98;;;20.70;99.90;;;;;;5092175;28;20052;-24
2023/07/12 10:56:15;;;;;;;4.72;1.00;;;21.20;1.00;;;;;;5094924;28;20052;-24
2023/07/12 10:59:09;;;;;;;2.97;1.00;;;21.90;99.90;;;;;;5095808;28;20134;-25
2023/07/12 11:01:41;;;;;;;4.55;1.05;;;21.30;1.00;;;;;;5095051;28;20047;-24
2023/07/12 11:04:10;;;;;;;3.30;0.95;;;21.00;1.00;;;;;;5092515;28;20044;-24
2023/07/12 11:06:54;;;;;;;3.78;1.10;;;21.90;99.90;;;;;;5095438;28;20048;-25
2023/07/12 11:09:20;;;;;;;3.00;0.93;;;22.60;1.00;;;;;;5095480;28;20052;-24
2023/07/12 11:12:06;;;;;;;3.10;0.80;;;21.90;99.90;;;;;;5096199;28;20058;-24
2023/07/12 11:14:38;;;;;;;3.78;0.75;;;21.70;1.00;;;;;;5077016;28;20131;-24
2023/07/12 11:17:06;;;;;;;5.10;1.20;;;21.90;1.00;;;;;;5075012;28;20040;-24
2023/07/12 11:19:41;;;;;;;5.47;1.13;;;21.30;99.90;;;;;;5076858;28;20064;-25
2023/07/12 11:22:48;;;;;;;3.38;0.90;;;21.20;99.90;;;;;;5074957;28;20045;-24
2023/07/12 11:25:25;;;;;;;4.55;1.10;;;21.80;96.10;;;;;;5036181;28;20088;-24
2023/07/12 11:28:01;;;;;;;5.63;1.20;;;22.10;1.00;;;;;;5069256;28;20048;-25
2023/07/12 11:30:37;;;;;;;5.47;1.50;;;21.80;45.40;;;;;;5076504;28;20048;-24
2023/07/12 11:33:29;;;;;;;3.00;0.70;;;21.60;99.90;;;;;;5088346;28;20044;-25
2023/07/12 11:36:16;;;;;;;3.58;0.73;;;21.70;1.00;;;;;;5097341;28;20047;-24
2023/07/12 11:38:43;;;;;;;6.47;1.10;;;22.40;1.00;;;;;;5104641;28;20044;-26
2023/07/12 11:41:26;;;;;;;4.00;1.10;;;22.80;1.00;;;;;;5084956;28;20090;-24
2023/07/12 11:44:21;;;;;;;;;;;23.00;99.90;;;;;;5075698;28;20049;-25
2023/07/12 11:46:50;;;;;;;5.68;1.00;;;23.20;99.90;;;;;;5065329;28;20011;-24
2023/07/12 11:49:20;;;;;;;3.47;0.90;;;22.80;1.00;;;;;;5075140;28;20048;-24
2023/07/12 11:51:51;;;;;;;4.82;0.95;;;22.50;1.00;;;;;;5075191;28;20072;-25
2023/07/12 11:54:28;;;;;;;0.88;0.43;;;22.70;99.90;;;;;;5075525;28;20441;-24
2023/07/12 11:57:02;;;;;;;2.90;1.00;;;23.20;1.00;;;;;;5073560;28;20048;-25
2023/07/12 11:59:31;;;;;;;2.72;0.80;;;23.00;99.90;;;;;;5074180;28;20045;-25
2023/07/12 12:01:57;;;;;;;4.22;0.93;;;22.90;99.90;;;;;;5074950;28;20040;-25
2023/07/12 12:04:27;;;;;;;2.20;0.52;;;23.10;99.90;;;;;;5074444;28;20042;-24
2023/07/12 12:07:02;;;;;;;3.28;0.70;;;23.20;99.90;;;;;;5072911;28;20135;-26
2023/07/12 12:09:37;;;;;;;6.43;0.93;;;23.00;88.00;;;;;;5074651;28;20098;-24
2023/07/12 12:12:06;;;;;;;4.60;0.60;;;22.80;99.90;;;;;;5074058;28;20131;-24
2023/07/12 12:14:40;;;;;;;5.53;1.15;;;22.70;99.90;;;;;;5074579;28;20122;-24
2023/07/12 12:17:33;;;;;;;3.45;0.52;;;22.70;54.00;;;;;;5074895;28;20045;-24
2023/07/12 12:20:15;;;;;;;1.45;0.40;;;22.70;1.00;;;;;;5071544;28;20135;-24
2023/07/12 12:22:43;;;;;;;1.45;0.20;;;22.60;1.00;;;;;;5074730;28;20044;-24
2023/07/12 12:25:21;;;;;;;5.00;0.77;;;22.10;99.90;;;;;;5073783;28;20051;-24
2023/07/12 12:27:48;;;;;;;2.67;0.70;;;22.10;1.00;;;;;;5073385;28;20120;-24
2023/07/12 12:30:24;;;;;;;1.63;0.40;;;22.50;26.10;;;;;;5073675;28;20054;-25
2023/07/12 12:32:56;;;;;;;2.45;0.40;;;22.60;1.00;;;;;;5074255;28;20174;-24
2023/07/12 12:35:22;;;;;;;2.47;0.35;;;22.80;99.90;;;;;;5073648;28;20045;-25
2023/07/12 12:37:55;;;;;;;1.40;0.30;;;22.80;13.60;;;;;;5073600;28;20044;-24
2023/07/12 12:40:21;;;;;;;2.33;0.30;;;22.80;1.00;;;;;;5073974;28;20056;-24
2023/07/12 12:42:59;;;;;;;1.50;0.30;;;22.90;41.00;;;;;;5073645;28;20067;-24
2023/07/12 12:45:36;;;;;;;3.42;0.50;;;22.70;1.00;;;;;;5072973;28;20079;-25
2023/07/12 12:48:09;;;;;;;6.32;1.10;;;22.80;1.00;;;;;;5086997;28;20071;-24
2023/07/12 12:50:38;;;;;;;0.75;0.38;;;22.80;1.00;;;;;;5075891;28;20139;-24
2023/07/12 12:53:05;;;;;;;4.95;0.50;;;23.00;99.90;;;;;;5074181;28;20058;-24
2023/07/12 12:55:36;;;;;;;4.38;1.02;;;22.80;99.90;;;;;;5072042;28;20517;-24